PWSweather.com
Personal Weather Stations
Station Observations
WAIROAHB
Wairoa, Northern Hawkes Bay -NZ 4108

WairoaNorthern Hawkes Bay -NZ 4108

Lat: -39.04516934, Lon: 177.4263989

Elevation: 156

Station Type: WS3083

http://wairoa.net/weather/index.htm

High Low Average
Temperature 68.5°F20.3°C 61.2°F16.2°C 63.5°F17.5°C
Dew Point 61.2°F16.2°C 56.5°F13.6°C 58.7°F14.8°C
Winds 9.8 mph 15.8 kmh Calm Calm 4.0 mph E6.4 kmh E
Wind Gusts 19.7 mph31.7 kmh 3.1 mph5.0 kmh 9.0 mph14.5 kmh
Humidity 95% 68% 84%
Pressure 29.91 in1012.9 mb 29.81 in1009.5 mb -
Precipitation 0.11 in2.8 mm - -
Hour Temp Dew Point Humidity Winds Wind Gusts Pressure Precip Precip Rate Daily Precip Total
12:00 AM 60.3°F15.7°C 57.0°F13.9°C 89% 0.7 mph N1.1 kmh N 3.8 mph6.1 kmh 29.95 in1014.2 mb 0.00 in0.0 mm 0.00 in0.0 mm 0.00 in0.0 mm
12:10 AM 59.4°F15.2°C 56.4°F13.6°C 90% Calm Calm 2.2 mph3.5 kmh 29.95 in1014.2 mb 0.00 in0.0 mm 0.00 in0.0 mm 0.00 in0.0 mm
12:20 AM 58.8°F14.9°C 56.5°F13.6°C 92% Calm Calm -- 29.94 in1013.9 mb 0.00 in0.0 mm 0.00 in0.0 mm 0.00 in0.0 mm
12:30 AM 59.0°F15.0°C 57.0°F13.9°C 93% Calm Calm 2.2 mph3.5 kmh 29.94 in1013.9 mb 0.00 in0.0 mm 0.00 in0.0 mm 0.00 in0.0 mm
12:40 AM 58.8°F14.9°C 57.1°F13.9°C 94% Calm Calm -- 29.94 in1013.9 mb 0.00 in0.0 mm 0.00 in0.0 mm 0.00 in0.0 mm
12:50 AM 58.3°F14.6°C 56.9°F13.8°C 95% Calm Calm -- 29.94 in1013.9 mb 0.00 in0.0 mm 0.00 in0.0 mm 0.00 in0.0 mm
01:00 AM 58.3°F14.6°C 57.2°F14.0°C 96% Calm Calm -- 29.93 in1013.5 mb 0.00 in0.0 mm 0.00 in0.0 mm 0.00 in0.0 mm
01:10 AM 58.3°F14.6°C 57.2°F14.0°C 96% Calm Calm -- 29.93 in1013.5 mb 0.00 in0.0 mm 0.00 in0.0 mm 0.00 in0.0 mm
01:20 AM 60.1°F15.6°C 59.0°F15.0°C 96% 3.1 mph E5.0 kmh E 6.9 mph11.1 kmh 29.93 in1013.5 mb 0.00 in0.0 mm 0.00 in0.0 mm 0.00 in0.0 mm
01:30 AM 60.6°F15.9°C 59.5°F15.3°C 96% 3.8 mph ESE6.1 kmh ESE 6.9 mph11.1 kmh 29.93 in1013.5 mb 0.00 in0.0 mm 0.00 in0.0 mm 0.00 in0.0 mm
01:40 AM 61.0°F16.1°C 59.0°F15.0°C 93% 2.2 mph E3.5 kmh E 9.2 mph14.8 kmh 29.93 in1013.5 mb 0.00 in0.0 mm 0.00 in0.0 mm 0.00 in0.0 mm
01:50 AM 61.2°F16.2°C 58.5°F14.7°C 91% 1.6 mph ENE2.6 kmh ENE 5.4 mph8.7 kmh 29.93 in1013.5 mb 0.00 in0.0 mm 0.00 in0.0 mm 0.00 in0.0 mm
02:00 AM 61.0°F16.1°C 58.3°F14.6°C 91% 1.6 mph ENE2.6 kmh ENE 5.4 mph8.7 kmh 29.93 in1013.5 mb 0.00 in0.0 mm 0.00 in0.0 mm 0.00 in0.0 mm
02:10 AM 61.3°F16.3°C 58.4°F14.7°C 90% 3.1 mph E5.0 kmh E 6.9 mph11.1 kmh 29.92 in1013.2 mb 0.00 in0.0 mm 0.00 in0.0 mm 0.00 in0.0 mm
02:20 AM 61.5°F16.4°C 58.3°F14.6°C 89% 2.2 mph E3.5 kmh E 10.7 mph17.2 kmh 29.92 in1013.2 mb 0.00 in0.0 mm 0.00 in0.0 mm 0.00 in0.0 mm
02:30 AM 61.2°F16.2°C 57.9°F14.4°C 89% 3.1 mph ENE5.0 kmh ENE 9.2 mph14.8 kmh 29.91 in1012.9 mb 0.00 in0.0 mm 0.00 in0.0 mm 0.00 in0.0 mm
02:40 AM 61.0°F16.1°C 58.0°F14.4°C 90% 4.5 mph NE7.2 kmh NE 9.2 mph14.8 kmh 29.91 in1012.9 mb 0.00 in0.0 mm 0.00 in0.0 mm 0.00 in0.0 mm
02:50 AM 61.2°F16.2°C 57.6°F14.2°C 88% 4.5 mph ENE7.2 kmh ENE 12.1 mph19.5 kmh 29.91 in1012.9 mb 0.00 in0.0 mm 0.00 in0.0 mm 0.00 in0.0 mm
03:00 AM 61.5°F16.4°C 57.3°F14.1°C 86% 3.8 mph NE6.1 kmh NE 9.2 mph14.8 kmh 29.91 in1012.9 mb 0.00 in0.0 mm 0.00 in0.0 mm 0.00 in0.0 mm
03:10 AM 61.9°F16.6°C 57.0°F13.9°C 84% 4.5 mph NE7.2 kmh NE 9.8 mph15.8 kmh 29.90 in1012.5 mb 0.00 in0.0 mm 0.00 in0.0 mm 0.00 in0.0 mm
03:20 AM 62.1°F16.7°C 56.9°F13.8°C 83% 3.8 mph NE6.1 kmh NE 13.0 mph20.9 kmh 29.90 in1012.5 mb 0.00 in0.0 mm 0.00 in0.0 mm 0.00 in0.0 mm
03:30 AM 62.1°F16.7°C 56.5°F13.6°C 82% 7.6 mph NE12.2 kmh NE 10.7 mph17.2 kmh 29.91 in1012.9 mb 0.00 in0.0 mm 0.00 in0.0 mm 0.00 in0.0 mm
03:40 AM 61.9°F16.6°C 56.3°F13.5°C 82% 6.9 mph NE11.1 kmh NE 12.1 mph19.5 kmh 29.91 in1012.9 mb 0.00 in0.0 mm 0.00 in0.0 mm 0.00 in0.0 mm
03:50 AM 61.9°F16.6°C 56.3°F13.5°C 82% 5.4 mph NE8.7 kmh NE 13.0 mph20.9 kmh 29.91 in1012.9 mb 0.00 in0.0 mm 0.00 in0.0 mm 0.00 in0.0 mm
04:00 AM 61.7°F16.5°C 56.2°F13.4°C 82% 7.6 mph NE12.2 kmh NE 11.4 mph18.3 kmh 29.91 in1012.9 mb 0.00 in0.0 mm 0.00 in0.0 mm 0.00 in0.0 mm
04:10 AM 61.5°F16.4°C 56.0°F13.3°C 82% 6.0 mph NE9.7 kmh NE 11.4 mph18.3 kmh 29.91 in1012.9 mb 0.00 in0.0 mm 0.00 in0.0 mm 0.00 in0.0 mm
04:20 AM 61.3°F16.3°C 56.1°F13.4°C 83% 3.8 mph ENE6.1 kmh ENE 9.2 mph14.8 kmh 29.91 in1012.9 mb 0.00 in0.0 mm 0.00 in0.0 mm 0.00 in0.0 mm
04:30 AM 61.5°F16.4°C 56.3°F13.5°C 83% 3.1 mph NE5.0 kmh NE 9.8 mph15.8 kmh 29.91 in1012.9 mb 0.00 in0.0 mm 0.00 in0.0 mm 0.00 in0.0 mm
04:40 AM 61.2°F16.2°C 56.0°F13.3°C 83% 5.4 mph ENE8.7 kmh ENE 10.7 mph17.2 kmh 29.91 in1012.9 mb 0.00 in0.0 mm 0.00 in0.0 mm 0.00 in0.0 mm
04:50 AM 61.5°F16.4°C 56.0°F13.3°C 82% 6.0 mph E9.7 kmh E 10.7 mph17.2 kmh 29.92 in1013.2 mb 0.00 in0.0 mm 0.00 in0.0 mm 0.00 in0.0 mm
05:00 AM 61.9°F16.6°C 55.7°F13.2°C 80% 9.2 mph E14.8 kmh E 13.0 mph20.9 kmh 29.92 in1013.2 mb 0.00 in0.0 mm 0.00 in0.0 mm 0.00 in0.0 mm
05:10 AM 62.1°F16.7°C 55.1°F12.8°C 78% 6.9 mph NE11.1 kmh NE 13.6 mph21.9 kmh 29.91 in1012.9 mb 0.00 in0.0 mm 0.00 in0.0 mm 0.00 in0.0 mm
05:20 AM 62.2°F16.8°C 55.0°F12.8°C 77% 6.0 mph NE9.7 kmh NE 18.3 mph29.5 kmh 29.91 in1012.9 mb 0.00 in0.0 mm 0.00 in0.0 mm 0.00 in0.0 mm
05:30 AM 62.4°F16.9°C 55.1°F12.8°C 77% 9.8 mph ENE15.8 kmh ENE 13.0 mph20.9 kmh 29.91 in1012.9 mb 0.00 in0.0 mm 0.00 in0.0 mm 0.00 in0.0 mm
05:40 AM 62.2°F16.8°C 55.0°F12.8°C 77% 4.5 mph ENE7.2 kmh ENE 12.1 mph19.5 kmh 29.91 in1012.9 mb 0.00 in0.0 mm 0.00 in0.0 mm 0.00 in0.0 mm
05:50 AM 62.2°F16.8°C 55.7°F13.2°C 79% 10.7 mph NE17.2 kmh NE 14.5 mph23.3 kmh 29.92 in1013.2 mb 0.00 in0.0 mm 0.00 in0.0 mm 0.00 in0.0 mm
06:00 AM 61.0°F16.1°C 55.8°F13.2°C 83% 9.8 mph E15.8 kmh E 18.3 mph29.5 kmh 29.92 in1013.2 mb 0.00 in0.0 mm 0.00 in0.0 mm 0.00 in0.0 mm
06:10 AM 60.4°F15.8°C 56.2°F13.4°C 86% 3.8 mph NE6.1 kmh NE 14.5 mph23.3 kmh 29.92 in1013.2 mb 0.00 in0.0 mm 0.00 in0.0 mm 0.00 in0.0 mm
06:20 AM 61.0°F16.1°C 56.5°F13.6°C 85% 3.8 mph ENE6.1 kmh ENE 9.2 mph14.8 kmh 29.92 in1013.2 mb 0.00 in0.0 mm 0.00 in0.0 mm 0.00 in0.0 mm
06:50 AM 62.8°F17.1°C 56.2°F13.4°C 79% 3.1 mph NE5.0 kmh NE 5.4 mph8.7 kmh 29.93 in1013.5 mb 0.00 in0.0 mm 0.00 in0.0 mm 0.00 in0.0 mm
07:00 AM 63.0°F17.2°C 56.0°F13.3°C 78% 6.0 mph NE9.7 kmh NE 8.3 mph13.4 kmh 29.93 in1013.5 mb 0.00 in0.0 mm 0.00 in0.0 mm 0.00 in0.0 mm
07:10 AM 63.0°F17.2°C 54.9°F12.7°C 75% 4.5 mph NE7.2 kmh NE 9.2 mph14.8 kmh 29.93 in1013.5 mb 0.00 in0.0 mm 0.00 in0.0 mm 0.00 in0.0 mm
07:20 AM 63.1°F17.3°C 55.1°F12.8°C 75% 4.5 mph NE7.2 kmh NE 9.8 mph15.8 kmh 29.94 in1013.9 mb 0.00 in0.0 mm 0.00 in0.0 mm 0.00 in0.0 mm
07:30 AM 63.7°F17.6°C 55.3°F12.9°C 74% 4.5 mph NE7.2 kmh NE 8.3 mph13.4 kmh 29.94 in1013.9 mb 0.00 in0.0 mm 0.00 in0.0 mm 0.00 in0.0 mm
07:40 AM 64.4°F18.0°C 55.6°F13.1°C 73% 3.1 mph ENE5.0 kmh ENE 6.9 mph11.1 kmh 29.93 in1013.5 mb 0.00 in0.0 mm 0.00 in0.0 mm 0.00 in0.0 mm
07:50 AM 68.4°F20.2°C 58.6°F14.8°C 71% Calm Calm 4.5 mph7.2 kmh 29.94 in1013.9 mb 0.00 in0.0 mm 0.00 in0.0 mm 0.00 in0.0 mm
08:00 AM 69.8°F21.0°C 55.8°F13.2°C 61% 3.1 mph NE5.0 kmh NE 8.3 mph13.4 kmh 29.94 in1013.9 mb 0.00 in0.0 mm 0.00 in0.0 mm 0.00 in0.0 mm
08:10 AM 67.6°F19.8°C 55.5°F13.1°C 65% 6.9 mph ENE11.1 kmh ENE 10.7 mph17.2 kmh 29.95 in1014.2 mb 0.00 in0.0 mm 0.00 in0.0 mm 0.00 in0.0 mm
08:20 AM 66.9°F19.4°C 53.9°F12.2°C 63% 7.6 mph NNE12.2 kmh NNE 19.0 mph30.6 kmh 29.94 in1013.9 mb 0.00 in0.0 mm 0.00 in0.0 mm 0.00 in0.0 mm
08:30 AM 65.8°F18.8°C 53.8°F12.1°C 65% 11.4 mph NE18.3 kmh NE 16.8 mph27.0 kmh 29.94 in1013.9 mb 0.00 in0.0 mm 0.00 in0.0 mm 0.00 in0.0 mm
08:40 AM 64.9°F18.3°C 53.7°F12.1°C 67% 4.5 mph NE7.2 kmh NE 19.0 mph30.6 kmh 29.94 in1013.9 mb 0.00 in0.0 mm 0.00 in0.0 mm 0.00 in0.0 mm
08:50 AM 66.2°F19.0°C 54.5°F12.5°C 66% 8.3 mph NE13.4 kmh NE 15.9 mph25.6 kmh 29.94 in1013.9 mb 0.00 in0.0 mm 0.00 in0.0 mm 0.00 in0.0 mm
09:00 AM 66.2°F19.0°C 54.5°F12.5°C 66% 6.0 mph NE9.7 kmh NE 18.3 mph29.5 kmh 29.94 in1013.9 mb 0.00 in0.0 mm 0.00 in0.0 mm 0.00 in0.0 mm
09:10 AM 66.4°F19.1°C 55.1°F12.8°C 67% 6.0 mph NE9.7 kmh NE 14.5 mph23.3 kmh 29.94 in1013.9 mb 0.00 in0.0 mm 0.00 in0.0 mm 0.00 in0.0 mm
09:20 AM 66.2°F19.0°C 54.9°F12.7°C 67% 4.5 mph NE7.2 kmh NE 13.6 mph21.9 kmh 29.93 in1013.5 mb 0.00 in0.0 mm 0.00 in0.0 mm 0.00 in0.0 mm
09:30 AM 66.7°F19.3°C 55.0°F12.8°C 66% 7.6 mph NE12.2 kmh NE 13.6 mph21.9 kmh 29.93 in1013.5 mb 0.00 in0.0 mm 0.00 in0.0 mm 0.00 in0.0 mm
09:40 AM 66.6°F19.2°C 55.3°F12.9°C 67% 6.0 mph NE9.7 kmh NE 14.5 mph23.3 kmh 29.93 in1013.5 mb 0.00 in0.0 mm 0.00 in0.0 mm 0.00 in0.0 mm
09:50 AM 66.4°F19.1°C 55.9°F13.3°C 69% 6.0 mph NE9.7 kmh NE 13.6 mph21.9 kmh 29.92 in1013.2 mb 0.00 in0.0 mm 0.00 in0.0 mm 0.00 in0.0 mm
10:00 AM 68.0°F20.0°C 57.1°F13.9°C 68% 6.0 mph ENE9.7 kmh ENE 9.8 mph15.8 kmh 29.92 in1013.2 mb 0.00 in0.0 mm 0.00 in0.0 mm 0.00 in0.0 mm
10:10 AM 70.0°F21.1°C 56.8°F13.8°C 63% 5.4 mph NE8.7 kmh NE 9.8 mph15.8 kmh 29.92 in1013.2 mb 0.00 in0.0 mm 0.00 in0.0 mm 0.00 in0.0 mm
10:20 AM 69.4°F20.8°C 56.8°F13.8°C 64% 6.9 mph NE11.1 kmh NE 13.6 mph21.9 kmh 29.92 in1013.2 mb 0.00 in0.0 mm 0.00 in0.0 mm 0.00 in0.0 mm
10:30 AM 69.4°F20.8°C 57.2°F14.0°C 65% 8.3 mph E13.4 kmh E 11.4 mph18.3 kmh 29.91 in1012.9 mb 0.00 in0.0 mm 0.00 in0.0 mm 0.00 in0.0 mm
10:40 AM 68.5°F20.3°C 56.8°F13.8°C 66% 7.6 mph ENE12.2 kmh ENE 14.5 mph23.3 kmh 29.92 in1013.2 mb 0.00 in0.0 mm 0.00 in0.0 mm 0.00 in0.0 mm
10:50 AM 70.2°F21.2°C 57.4°F14.1°C 64% 7.6 mph NE12.2 kmh NE 13.6 mph21.9 kmh 29.92 in1013.2 mb 0.00 in0.0 mm 0.00 in0.0 mm 0.00 in0.0 mm
11:00 AM 70.0°F21.1°C 56.4°F13.6°C 62% 5.4 mph NE8.7 kmh NE 15.9 mph25.6 kmh 29.92 in1013.2 mb 0.00 in0.0 mm 0.00 in0.0 mm 0.00 in0.0 mm
11:10 AM 67.6°F19.8°C 56.3°F13.5°C 67% 6.0 mph NE9.7 kmh NE 14.5 mph23.3 kmh 29.91 in1012.9 mb 0.00 in0.0 mm 0.00 in0.0 mm 0.00 in0.0 mm
11:20 AM 66.9°F19.4°C 57.2°F14.0°C 71% 6.9 mph NE11.1 kmh NE 13.0 mph20.9 kmh 29.91 in1012.9 mb 0.00 in0.0 mm 0.00 in0.0 mm 0.00 in0.0 mm
11:30 AM 68.5°F20.3°C 57.6°F14.2°C 68% 9.2 mph NE14.8 kmh NE 11.4 mph18.3 kmh 29.91 in1012.9 mb 0.00 in0.0 mm 0.00 in0.0 mm 0.00 in0.0 mm
11:40 AM 68.4°F20.2°C 57.4°F14.1°C 68% 9.2 mph ENE14.8 kmh ENE 16.8 mph27.0 kmh 29.91 in1012.9 mb 0.00 in0.0 mm 0.00 in0.0 mm 0.00 in0.0 mm
11:50 AM 68.0°F20.0°C 57.5°F14.2°C 69% 11.4 mph NE18.3 kmh NE 17.4 mph28.0 kmh 29.91 in1012.9 mb 0.00 in0.0 mm 0.00 in0.0 mm 0.00 in0.0 mm
12:00 PM 68.5°F20.3°C 57.6°F14.2°C 68% 7.6 mph ENE12.2 kmh ENE 13.6 mph21.9 kmh 29.91 in1012.9 mb 0.00 in0.0 mm 0.00 in0.0 mm 0.00 in0.0 mm
12:10 PM 66.6°F19.2°C 56.5°F13.6°C 70% 9.2 mph NE14.8 kmh NE 19.7 mph31.7 kmh 29.91 in1012.9 mb 0.00 in0.0 mm 0.00 in0.0 mm 0.00 in0.0 mm
12:20 PM 66.0°F18.9°C 57.1°F13.9°C 73% 5.4 mph NE8.7 kmh NE 16.8 mph27.0 kmh 29.91 in1012.9 mb 0.00 in0.0 mm 0.00 in0.0 mm 0.00 in0.0 mm
12:30 PM 66.6°F19.2°C 57.3°F14.1°C 72% 6.0 mph NE9.7 kmh NE 16.8 mph27.0 kmh 29.91 in1012.9 mb 0.00 in0.0 mm 0.00 in0.0 mm 0.00 in0.0 mm
12:40 PM 65.5°F18.6°C 58.1°F14.5°C 77% 9.2 mph NE14.8 kmh NE 19.0 mph30.6 kmh 29.91 in1012.9 mb 0.00 in0.0 mm 0.00 in0.0 mm 0.00 in0.0 mm
12:50 PM 64.0°F17.8°C 58.1°F14.5°C 81% 4.5 mph NE7.2 kmh NE 13.6 mph21.9 kmh 29.91 in1012.9 mb 0.01 in0.3 mm 0.06 in1.5 mm 0.01 in0.3 mm
01:00 PM 63.1°F17.3°C 57.9°F14.4°C 83% 9.2 mph NE14.8 kmh NE 13.0 mph20.9 kmh 29.91 in1012.9 mb 0.01 in0.3 mm 0.00 in0.0 mm 0.01 in0.3 mm
01:10 PM 63.1°F17.3°C 58.2°F14.6°C 84% 4.5 mph ENE7.2 kmh ENE 12.1 mph19.5 kmh 29.90 in1012.5 mb 0.01 in0.3 mm 0.00 in0.0 mm 0.01 in0.3 mm
01:20 PM 63.1°F17.3°C 57.9°F14.4°C 83% 4.5 mph E7.2 kmh E 13.0 mph20.9 kmh 29.90 in1012.5 mb 0.02 in0.5 mm 0.06 in1.5 mm 0.02 in0.5 mm
01:30 PM 63.3°F17.4°C 58.4°F14.7°C 84% 4.5 mph E7.2 kmh E 10.7 mph17.2 kmh 29.89 in1012.2 mb 0.02 in0.5 mm 0.00 in0.0 mm 0.02 in0.5 mm
01:40 PM 63.3°F17.4°C 58.4°F14.7°C 84% 4.5 mph ENE7.2 kmh ENE 8.3 mph13.4 kmh 29.90 in1012.5 mb 0.02 in0.5 mm 0.00 in0.0 mm 0.02 in0.5 mm
01:50 PM 63.9°F17.7°C 59.0°F15.0°C 84% Calm Calm 5.4 mph8.7 kmh 29.89 in1012.2 mb 0.01 in0.3 mm 0.00 in0.0 mm 0.02 in0.5 mm
02:00 PM 64.0°F17.8°C 59.1°F15.1°C 84% 3.1 mph ENE5.0 kmh ENE 5.4 mph8.7 kmh 29.89 in1012.2 mb 0.02 in0.5 mm 0.01 in0.3 mm 0.04 in1.0 mm
02:10 PM 64.0°F17.8°C 59.1°F15.1°C 84% 3.8 mph ENE6.1 kmh ENE 5.4 mph8.7 kmh 29.89 in1012.2 mb 0.02 in0.5 mm 0.00 in0.0 mm 0.04 in1.0 mm
02:20 PM 64.6°F18.1°C 60.3°F15.7°C 86% 2.2 mph ENE3.5 kmh ENE 5.4 mph8.7 kmh 29.88 in1011.9 mb 0.01 in0.3 mm 0.00 in0.0 mm 0.04 in1.0 mm
02:30 PM 64.6°F18.1°C 60.0°F15.6°C 85% 2.2 mph NE3.5 kmh NE 5.4 mph8.7 kmh 29.88 in1011.9 mb 0.01 in0.3 mm 0.00 in0.0 mm 0.04 in1.0 mm
02:40 PM 65.8°F18.8°C 61.2°F16.2°C 85% 2.2 mph E3.5 kmh E 3.1 mph5.0 kmh 29.87 in1011.5 mb 0.01 in0.3 mm 0.00 in0.0 mm 0.04 in1.0 mm
02:50 PM 65.1°F18.4°C 59.8°F15.4°C 83% Calm Calm 6.0 mph9.7 kmh 29.87 in1011.5 mb 0.01 in0.3 mm 0.00 in0.0 mm 0.04 in1.0 mm
03:00 PM 64.9°F18.3°C 60.0°F15.6°C 84% 3.8 mph ENE6.1 kmh ENE 5.4 mph8.7 kmh 29.86 in1011.2 mb 0.00 in0.0 mm 0.00 in0.0 mm 0.04 in1.0 mm
03:10 PM 64.2°F17.9°C 59.3°F15.2°C 84% 3.1 mph ENE5.0 kmh ENE 8.3 mph13.4 kmh 29.87 in1011.5 mb 0.00 in0.0 mm 0.00 in0.0 mm 0.04 in1.0 mm
03:20 PM 64.0°F17.8°C 59.1°F15.1°C 84% 6.0 mph E9.7 kmh E 13.0 mph20.9 kmh 29.87 in1011.5 mb 0.00 in0.0 mm 0.00 in0.0 mm 0.04 in1.0 mm
03:30 PM 63.9°F17.7°C 59.0°F15.0°C 84% 9.8 mph ENE15.8 kmh ENE 13.6 mph21.9 kmh 29.86 in1011.2 mb 0.01 in0.3 mm 0.06 in1.5 mm 0.05 in1.3 mm
03:40 PM 63.3°F17.4°C 58.4°F14.7°C 84% 5.4 mph NE8.7 kmh NE 13.6 mph21.9 kmh 29.86 in1011.2 mb 0.02 in0.5 mm 0.06 in1.5 mm 0.06 in1.5 mm
03:50 PM 63.1°F17.3°C 58.2°F14.6°C 84% 3.1 mph NE5.0 kmh NE 9.2 mph14.8 kmh 29.86 in1011.2 mb 0.02 in0.5 mm 0.00 in0.0 mm 0.06 in1.5 mm
04:00 PM 63.7°F17.6°C 59.4°F15.2°C 86% 1.6 mph ENE2.6 kmh ENE 6.0 mph9.7 kmh 29.86 in1011.2 mb 0.02 in0.5 mm 0.00 in0.0 mm 0.06 in1.5 mm
04:10 PM 64.0°F17.8°C 59.5°F15.3°C 85% 2.2 mph ENE3.5 kmh ENE 5.4 mph8.7 kmh 29.85 in1010.8 mb 0.02 in0.5 mm 0.00 in0.0 mm 0.06 in1.5 mm
04:20 PM 64.6°F18.1°C 60.3°F15.7°C 86% 1.6 mph E2.6 kmh E 4.5 mph7.2 kmh 29.85 in1010.8 mb 0.02 in0.5 mm 0.00 in0.0 mm 0.06 in1.5 mm
04:30 PM 64.4°F18.0°C 59.8°F15.4°C 85% 1.6 mph E2.6 kmh E 5.4 mph8.7 kmh 29.84 in1010.5 mb 0.01 in0.3 mm 0.00 in0.0 mm 0.06 in1.5 mm
04:40 PM 63.9°F17.7°C 59.3°F15.2°C 85% 4.5 mph E7.2 kmh E 6.9 mph11.1 kmh 29.85 in1010.8 mb 0.00 in0.0 mm 0.00 in0.0 mm 0.06 in1.5 mm
04:50 PM 63.9°F17.7°C 59.6°F15.3°C 86% 5.4 mph E8.7 kmh E 11.4 mph18.3 kmh 29.84 in1010.5 mb 0.00 in0.0 mm 0.00 in0.0 mm 0.06 in1.5 mm
05:00 PM 63.9°F17.7°C 59.3°F15.2°C 85% 4.5 mph E7.2 kmh E 12.1 mph19.5 kmh 29.85 in1010.8 mb 0.00 in0.0 mm 0.00 in0.0 mm 0.06 in1.5 mm
05:10 PM 63.7°F17.6°C 59.1°F15.1°C 85% 3.1 mph E5.0 kmh E 8.3 mph13.4 kmh 29.85 in1010.8 mb 0.00 in0.0 mm 0.00 in0.0 mm 0.06 in1.5 mm
05:20 PM 63.7°F17.6°C 58.8°F14.9°C 84% 3.1 mph E5.0 kmh E 6.9 mph11.1 kmh 29.84 in1010.5 mb 0.00 in0.0 mm 0.00 in0.0 mm 0.06 in1.5 mm
05:30 PM 63.9°F17.7°C 58.6°F14.8°C 83% 6.0 mph E9.7 kmh E 7.6 mph12.2 kmh 29.85 in1010.8 mb 0.00 in0.0 mm 0.00 in0.0 mm 0.06 in1.5 mm
05:40 PM 63.9°F17.7°C 58.3°F14.6°C 82% 3.8 mph E6.1 kmh E 7.6 mph12.2 kmh 29.85 in1010.8 mb 0.00 in0.0 mm 0.00 in0.0 mm 0.06 in1.5 mm
05:50 PM 64.0°F17.8°C 58.5°F14.7°C 82% 3.1 mph E5.0 kmh E 9.2 mph14.8 kmh 29.84 in1010.5 mb 0.00 in0.0 mm 0.00 in0.0 mm 0.06 in1.5 mm
06:00 PM 63.9°F17.7°C 58.3°F14.6°C 82% 3.8 mph E6.1 kmh E 9.2 mph14.8 kmh 29.84 in1010.5 mb 0.00 in0.0 mm 0.00 in0.0 mm 0.06 in1.5 mm
06:10 PM 64.0°F17.8°C 58.5°F14.7°C 82% 5.4 mph E8.7 kmh E 9.8 mph15.8 kmh 29.84 in1010.5 mb 0.00 in0.0 mm 0.00 in0.0 mm 0.06 in1.5 mm
06:20 PM 63.9°F17.7°C 58.3°F14.6°C 82% 2.2 mph ESE3.5 kmh ESE 9.2 mph14.8 kmh 29.84 in1010.5 mb 0.00 in0.0 mm 0.00 in0.0 mm 0.06 in1.5 mm
06:30 PM 63.9°F17.7°C 58.6°F14.8°C 83% 3.1 mph ENE5.0 kmh ENE 6.9 mph11.1 kmh 29.84 in1010.5 mb 0.00 in0.0 mm 0.00 in0.0 mm 0.06 in1.5 mm
06:40 PM 63.9°F17.7°C 58.3°F14.6°C 82% 6.0 mph ENE9.7 kmh ENE 9.2 mph14.8 kmh 29.84 in1010.5 mb 0.00 in0.0 mm 0.00 in0.0 mm 0.06 in1.5 mm
06:50 PM 63.9°F17.7°C 57.9°F14.4°C 81% 7.6 mph NE12.2 kmh NE 13.0 mph20.9 kmh 29.84 in1010.5 mb 0.00 in0.0 mm 0.00 in0.0 mm 0.06 in1.5 mm
07:00 PM 63.9°F17.7°C 57.9°F14.4°C 81% 6.0 mph NE9.7 kmh NE 15.2 mph24.5 kmh 29.84 in1010.5 mb 0.00 in0.0 mm 0.00 in0.0 mm 0.06 in1.5 mm
07:10 PM 63.7°F17.6°C 57.8°F14.3°C 81% 5.4 mph ENE8.7 kmh ENE 12.1 mph19.5 kmh 29.84 in1010.5 mb 0.00 in0.0 mm 0.00 in0.0 mm 0.06 in1.5 mm
07:20 PM 63.7°F17.6°C 57.8°F14.3°C 81% 3.1 mph ENE5.0 kmh ENE 13.0 mph20.9 kmh 29.84 in1010.5 mb 0.00 in0.0 mm 0.00 in0.0 mm 0.06 in1.5 mm
07:30 PM 63.5°F17.5°C 57.9°F14.4°C 82% 0.7 mph E1.1 kmh E 10.7 mph17.2 kmh 29.84 in1010.5 mb 0.00 in0.0 mm 0.00 in0.0 mm 0.06 in1.5 mm
07:40 PM 63.3°F17.4°C 57.7°F14.3°C 82% 3.1 mph ENE5.0 kmh ENE 9.8 mph15.8 kmh 29.84 in1010.5 mb 0.00 in0.0 mm 0.00 in0.0 mm 0.06 in1.5 mm
07:50 PM 63.3°F17.4°C 57.7°F14.3°C 82% 6.0 mph ENE9.7 kmh ENE 12.1 mph19.5 kmh 29.84 in1010.5 mb 0.00 in0.0 mm 0.00 in0.0 mm 0.06 in1.5 mm
08:00 PM 63.3°F17.4°C 57.7°F14.3°C 82% 3.8 mph NE6.1 kmh NE 13.0 mph20.9 kmh 29.84 in1010.5 mb 0.00 in0.0 mm 0.00 in0.0 mm 0.06 in1.5 mm
08:10 PM 63.3°F17.4°C 57.7°F14.3°C 82% 6.9 mph NE11.1 kmh NE 13.6 mph21.9 kmh 29.85 in1010.8 mb 0.00 in0.0 mm 0.00 in0.0 mm 0.06 in1.5 mm
08:20 PM 63.3°F17.4°C 57.7°F14.3°C 82% 6.0 mph NE9.7 kmh NE 11.4 mph18.3 kmh 29.85 in1010.8 mb 0.00 in0.0 mm 0.00 in0.0 mm 0.06 in1.5 mm
08:30 PM 63.3°F17.4°C 57.7°F14.3°C 82% 6.9 mph ENE11.1 kmh ENE 12.1 mph19.5 kmh 29.85 in1010.8 mb 0.00 in0.0 mm 0.00 in0.0 mm 0.06 in1.5 mm
08:40 PM 63.1°F17.3°C 57.6°F14.2°C 82% 3.1 mph NE5.0 kmh NE 10.7 mph17.2 kmh 29.85 in1010.8 mb 0.00 in0.0 mm 0.00 in0.0 mm 0.06 in1.5 mm
08:50 PM 62.8°F17.1°C 57.6°F14.2°C 83% 2.2 mph NE3.5 kmh NE 6.0 mph9.7 kmh 29.85 in1010.8 mb 0.00 in0.0 mm 0.00 in0.0 mm 0.06 in1.5 mm
09:00 PM 62.6°F17.0°C 57.7°F14.3°C 84% 2.2 mph E3.5 kmh E 6.0 mph9.7 kmh 29.86 in1011.2 mb 0.00 in0.0 mm 0.00 in0.0 mm 0.06 in1.5 mm
09:10 PM 62.4°F16.9°C 58.2°F14.6°C 86% 1.6 mph ENE2.6 kmh ENE 5.4 mph8.7 kmh 29.86 in1011.2 mb 0.00 in0.0 mm 0.00 in0.0 mm 0.06 in1.5 mm
09:20 PM 62.6°F17.0°C 57.7°F14.3°C 84% Calm Calm 5.4 mph8.7 kmh 29.86 in1011.2 mb 0.00 in0.0 mm 0.00 in0.0 mm 0.06 in1.5 mm
09:30 PM 62.4°F16.9°C 58.2°F14.6°C 86% 0.7 mph E1.1 kmh E 3.8 mph6.1 kmh 29.85 in1010.8 mb 0.00 in0.0 mm 0.00 in0.0 mm 0.06 in1.5 mm
09:40 PM 62.1°F16.7°C 58.2°F14.6°C 87% 2.2 mph NW3.5 kmh NW 3.1 mph5.0 kmh 29.85 in1010.8 mb 0.00 in0.0 mm 0.00 in0.0 mm 0.06 in1.5 mm
09:50 PM 61.9°F16.6°C 58.3°F14.6°C 88% 1.6 mph SE2.6 kmh SE 3.8 mph6.1 kmh 29.84 in1010.5 mb 0.00 in0.0 mm 0.00 in0.0 mm 0.06 in1.5 mm
10:00 PM 62.2°F16.8°C 58.7°F14.8°C 88% 3.1 mph ESE5.0 kmh ESE 4.5 mph7.2 kmh 29.85 in1010.8 mb 0.00 in0.0 mm 0.00 in0.0 mm 0.06 in1.5 mm
10:10 PM 62.4°F16.9°C 59.2°F15.1°C 89% 1.6 mph E2.6 kmh E 4.5 mph7.2 kmh 29.84 in1010.5 mb 0.00 in0.0 mm 0.00 in0.0 mm 0.06 in1.5 mm
10:20 PM 62.1°F16.7°C 58.8°F14.9°C 89% 2.2 mph E3.5 kmh E 4.5 mph7.2 kmh 29.84 in1010.5 mb 0.01 in0.3 mm 0.06 in1.5 mm 0.07 in1.8 mm
10:30 PM 61.7°F16.5°C 59.4°F15.2°C 92% 1.6 mph E2.6 kmh E 3.8 mph6.1 kmh 29.84 in1010.5 mb 0.04 in1.0 mm 0.18 in4.6 mm 0.09 in2.3 mm
10:40 PM 61.3°F16.3°C 59.3°F15.2°C 93% 1.6 mph E2.6 kmh E 4.5 mph7.2 kmh 29.83 in1010.2 mb 0.05 in1.3 mm 0.06 in1.5 mm 0.11 in2.8 mm
10:50 PM 61.3°F16.3°C 59.3°F15.2°C 93% 3.1 mph E5.0 kmh E 5.4 mph8.7 kmh 29.84 in1010.5 mb 0.05 in1.3 mm 0.00 in0.0 mm 0.11 in2.8 mm
11:00 PM 61.2°F16.2°C 59.4°F15.2°C 94% 0.7 mph SE1.1 kmh SE 3.8 mph6.1 kmh 29.82 in1009.8 mb 0.05 in1.3 mm 0.00 in0.0 mm 0.10 in2.5 mm
11:10 PM 61.2°F16.2°C 59.7°F15.4°C 95% 0.7 mph SE1.1 kmh SE 3.8 mph6.1 kmh 29.82 in1009.8 mb 0.05 in1.3 mm 0.00 in0.0 mm 0.10 in2.5 mm
11:20 PM 61.2°F16.2°C 59.7°F15.4°C 95% 0.7 mph E1.1 kmh E 3.1 mph5.0 kmh 29.82 in1009.8 mb 0.04 in1.0 mm 0.00 in0.0 mm 0.10 in2.5 mm
11:30 PM 61.5°F16.4°C 60.1°F15.6°C 95% 3.1 mph E5.0 kmh E 9.2 mph14.8 kmh 29.82 in1009.8 mb 0.01 in0.3 mm 0.00 in0.0 mm 0.10 in2.5 mm
11:40 PM 61.9°F16.6°C 60.2°F15.7°C 94% 3.1 mph ESE5.0 kmh ESE 6.9 mph11.1 kmh 29.82 in1009.8 mb 0.00 in0.0 mm 0.00 in0.0 mm 0.10 in2.5 mm
11:50 PM 61.9°F16.6°C 60.2°F15.7°C 94% 4.5 mph ESE7.2 kmh ESE 6.0 mph9.7 kmh 29.81 in1009.5 mb 0.00 in0.0 mm 0.00 in0.0 mm 0.10 in2.5 mm